createdAt,value
2023-04-12T00:01:11.711Z,16.90
2023-04-12T00:03:39.825Z,16.87
2023-04-12T00:06:07.786Z,16.86
2023-04-12T00:08:35.674Z,16.84
2023-04-12T00:11:03.843Z,16.83
2023-04-12T00:13:31.447Z,16.80
2023-04-12T00:15:59.784Z,16.80
2023-04-12T00:18:27.807Z,16.76
2023-04-12T00:20:56.073Z,16.75
2023-04-12T00:23:23.119Z,16.73
2023-04-12T00:25:50.247Z,16.74
2023-04-12T00:28:17.497Z,16.74
2023-04-12T00:30:45.363Z,16.73
2023-04-12T00:33:12.356Z,16.75
2023-04-12T00:35:39.387Z,16.73
2023-04-12T00:38:10.965Z,16.70
2023-04-12T00:40:42.892Z,16.70
2023-04-12T00:43:19.060Z,16.71
2023-04-12T00:45:47.156Z,16.73
2023-04-12T00:48:16.162Z,16.71
2023-04-12T00:50:45.091Z,16.70
2023-04-12T00:53:14.652Z,16.67
2023-04-12T00:55:45.666Z,16.67
2023-04-12T00:58:14.006Z,16.66
2023-04-12T01:00:41.096Z,16.64
2023-04-12T01:03:08.964Z,16.64
2023-04-12T01:05:43.974Z,16.63
2023-04-12T01:08:43.928Z,16.61
2023-04-12T01:11:40.989Z,16.60
2023-04-12T01:14:15.418Z,16.59
2023-04-12T01:16:51.497Z,16.56
2023-04-12T01:19:54.110Z,16.55
2023-04-12T01:22:37.784Z,16.54
2023-04-12T01:25:24.486Z,16.51
2023-04-12T01:27:58.009Z,16.50
2023-04-12T01:30:28.470Z,16.49
2023-04-12T01:32:57.200Z,16.50
2023-04-12T01:35:29.601Z,16.47
2023-04-12T01:37:58.703Z,16.46
2023-04-12T01:40:31.840Z,16.45
2023-04-12T01:43:09.226Z,16.43
2023-04-12T01:45:36.660Z,16.41
2023-04-12T01:48:08.780Z,16.42
2023-04-12T01:50:45.881Z,16.39
2023-04-12T01:53:18.749Z,16.39
2023-04-12T01:55:47.400Z,16.36
2023-04-12T01:58:20.324Z,16.35
2023-04-12T02:00:48.910Z,16.34
2023-04-12T02:03:16.991Z,16.34
2023-04-12T02:05:44.604Z,16.32
2023-04-12T02:08:12.545Z,16.30
2023-04-12T02:10:40.726Z,16.32
2023-04-12T02:13:07.705Z,16.31
2023-04-12T02:15:34.769Z,16.30
2023-04-12T02:18:01.937Z,16.28
2023-04-12T02:20:28.908Z,16.29
2023-04-12T02:22:55.895Z,16.29
2023-04-12T02:25:23.021Z,16.28
2023-04-12T02:27:50.058Z,16.27
2023-04-12T02:30:17.062Z,16.25
2023-04-12T02:32:46.911Z,16.25
2023-04-12T02:35:19.875Z,16.19
2023-04-12T02:37:47.758Z,16.22
2023-04-12T02:40:18.413Z,16.22
2023-04-12T02:42:45.370Z,16.22
2023-04-12T02:45:12.781Z,16.21
2023-04-12T02:47:41.236Z,16.20
2023-04-12T02:50:08.889Z,16.19
2023-04-12T02:52:35.988Z,16.20
2023-04-12T02:55:02.969Z,16.18
2023-04-12T02:57:29.922Z,16.18
2023-04-12T02:59:56.979Z,16.18
2023-04-12T03:02:24.298Z,16.17
2023-04-12T03:04:51.444Z,16.19
2023-04-12T03:07:19.978Z,16.19
2023-04-12T03:09:48.169Z,16.16
2023-04-12T03:12:16.716Z,16.14
2023-04-12T03:14:43.927Z,16.13
2023-04-12T03:17:11.385Z,16.16
2023-04-12T03:19:38.511Z,16.14
2023-04-12T03:22:06.439Z,16.14
2023-04-12T03:24:34.528Z,16.14
2023-04-12T03:27:03.201Z,16.14
2023-04-12T03:29:31.434Z,16.11
2023-04-12T03:31:59.830Z,16.11
2023-04-12T03:34:32.674Z,16.11
2023-04-12T03:37:01.273Z,16.11
2023-04-12T03:39:28.928Z,16.10
2023-04-12T03:41:55.910Z,16.09
2023-04-12T03:44:23.024Z,16.09
2023-04-12T03:46:50.123Z,16.07
2023-04-12T03:49:17.284Z,16.06
2023-04-12T03:51:44.325Z,16.06
2023-04-12T03:54:13.626Z,16.04
2023-04-12T03:56:40.580Z,16.05
2023-04-12T03:59:08.194Z,16.03
2023-04-12T04:01:36.060Z,16.05
2023-04-12T04:04:04.118Z,16.03
2023-04-12T04:06:31.615Z,16.02
2023-04-12T04:08:58.936Z,16.01
2023-04-12T04:11:26.349Z,16.01
2023-04-12T04:13:53.428Z,16.00
2023-04-12T04:16:20.819Z,16.00
2023-04-12T04:18:47.845Z,16.00
2023-04-12T04:21:14.933Z,15.98
2023-04-12T04:23:45.238Z,15.98
2023-04-12T04:26:12.867Z,15.99
2023-04-12T04:28:42.581Z,15.96
2023-04-12T04:31:10.948Z,15.91
2023-04-12T04:33:39.269Z,15.95
2023-04-12T04:36:10.057Z,15.99
2023-04-12T04:38:37.240Z,16.02
2023-04-12T04:41:04.902Z,16.05
2023-04-12T04:43:34.451Z,15.91
2023-04-12T04:46:02.650Z,15.90
2023-04-12T04:48:30.384Z,15.93
2023-04-12T04:50:57.786Z,15.96
2023-04-12T04:53:24.925Z,15.99
2023-04-12T04:55:58.248Z,16.01
2023-04-12T04:58:25.647Z,16.03
2023-04-12T05:00:56.284Z,16.02
2023-04-12T05:03:23.890Z,16.05
2023-04-12T05:05:51.193Z,16.11
2023-04-12T05:08:18.154Z,16.10
2023-04-12T05:10:45.118Z,16.05
2023-04-12T05:13:12.074Z,16.04
2023-04-12T05:15:41.452Z,16.05
2023-04-12T05:18:08.387Z,16.12
2023-04-12T05:20:35.353Z,16.11
2023-04-12T05:23:02.493Z,16.12
2023-04-12T05:25:29.432Z,16.10
2023-04-12T05:27:56.413Z,16.14
2023-04-12T05:30:23.422Z,16.19
2023-04-12T05:32:50.499Z,16.19
2023-04-12T05:35:17.817Z,16.06
2023-04-12T05:37:44.939Z,16.01
2023-04-12T05:40:12.382Z,15.97
2023-04-12T05:42:39.828Z,15.95
2023-04-12T05:45:07.256Z,15.92
2023-04-12T05:47:34.370Z,15.91
2023-04-12T05:50:01.395Z,15.88
2023-04-12T05:52:28.401Z,15.87
2023-04-12T05:54:55.417Z,15.86
2023-04-12T05:57:22.449Z,15.84
2023-04-12T05:59:49.529Z,15.83
2023-04-12T06:02:16.979Z,15.82
2023-04-12T06:04:50.887Z,15.83
2023-04-12T06:07:19.753Z,15.86
2023-04-12T06:09:47.700Z,15.85
2023-04-12T06:12:14.870Z,15.82
2023-04-12T06:14:42.468Z,15.84
2023-04-12T06:17:09.557Z,15.83
2023-04-12T06:19:36.653Z,15.84
2023-04-12T06:22:03.674Z,15.79
2023-04-12T06:24:30.823Z,15.81
2023-04-12T06:26:58.065Z,15.71
2023-04-12T06:29:25.180Z,15.23
2023-04-12T06:31:52.336Z,15.03
2023-04-12T06:34:19.491Z,15.05
2023-04-12T06:36:48.300Z,15.20
2023-04-12T06:39:17.052Z,15.31
2023-04-12T06:41:44.421Z,15.35
2023-04-12T06:44:11.729Z,15.36
2023-04-12T06:46:38.893Z,15.38
2023-04-12T06:49:06.236Z,15.38
2023-04-12T06:51:35.094Z,15.38
2023-04-12T06:54:02.569Z,15.38
2023-04-12T06:56:29.669Z,15.37
2023-04-12T06:58:57.598Z,15.36
2023-04-12T07:01:25.270Z,15.34
2023-04-12T07:03:53.183Z,15.34
2023-04-12T07:06:25.545Z,15.33
2023-04-12T07:08:53.653Z,15.32
2023-04-12T07:11:23.315Z,15.32
2023-04-12T07:13:51.765Z,15.31
2023-04-12T07:16:19.253Z,15.31
2023-04-12T07:18:46.812Z,15.30
2023-04-12T07:21:14.880Z,15.30
2023-04-12T07:23:42.015Z,15.28
2023-04-12T07:26:09.434Z,15.27
2023-04-12T07:28:36.922Z,15.27
2023-04-12T07:31:07.833Z,15.27
2023-04-12T07:33:37.763Z,15.24
2023-04-12T07:36:07.310Z,15.23
2023-04-12T07:38:34.685Z,15.24
2023-04-12T07:41:02.111Z,15.23
2023-04-12T07:43:30.123Z,15.21
2023-04-12T07:45:57.466Z,15.19
2023-04-12T07:48:25.174Z,15.18
2023-04-12T07:50:53.998Z,15.18
2023-04-12T07:53:27.050Z,15.18
2023-04-12T07:55:56.585Z,15.17
2023-04-12T07:58:25.258Z,15.17
2023-04-12T08:00:54.288Z,15.19
2023-04-12T08:03:21.576Z,15.19
2023-04-12T08:05:53.881Z,15.17
2023-04-12T08:08:22.651Z,15.09
2023-04-12T08:10:51.758Z,15.09
2023-04-12T08:13:19.681Z,15.07
2023-04-12T08:15:49.974Z,15.07
2023-04-12T08:18:17.229Z,15.07
2023-04-12T08:20:44.641Z,15.09
2023-04-12T08:23:12.491Z,15.09
2023-04-12T08:25:40.124Z,15.09
2023-04-12T08:28:10.112Z,15.07
2023-04-12T08:30:37.580Z,15.07
2023-04-12T08:33:04.761Z,15.07
2023-04-12T08:35:32.344Z,15.07
2023-04-12T08:38:00.784Z,15.07
2023-04-12T08:40:28.091Z,15.08
2023-04-12T08:42:56.529Z,15.07
2023-04-12T08:45:30.169Z,15.09
2023-04-12T08:47:57.952Z,15.08
2023-04-12T08:50:26.832Z,15.08
2023-04-12T08:52:54.788Z,15.09
2023-04-12T08:55:22.715Z,15.09
2023-04-12T08:57:51.918Z,15.09
2023-04-12T09:00:21.537Z,15.10
2023-04-12T09:02:49.654Z,15.09
2023-04-12T09:05:17.187Z,15.04
2023-04-12T09:07:44.751Z,15.01
2023-04-12T09:10:25.923Z,15.01
2023-04-12T09:12:54.413Z,14.98
2023-04-12T09:15:21.902Z,14.97
2023-04-12T09:17:50.398Z,14.95
2023-04-12T09:20:18.009Z,14.95
2023-04-12T09:22:46.996Z,14.94
2023-04-12T09:25:16.281Z,14.95
2023-04-12T09:27:52.015Z,14.96
2023-04-12T09:30:20.962Z,14.97
2023-04-12T09:32:51.372Z,14.96
2023-04-12T09:35:19.309Z,14.96
2023-04-12T09:37:46.502Z,14.97
2023-04-12T09:40:14.637Z,14.98
2023-04-12T09:42:54.713Z,14.97
2023-04-12T09:45:26.861Z,14.98
2023-04-12T09:47:55.396Z,14.96
2023-04-12T09:50:30.831Z,14.96
2023-04-12T09:52:59.617Z,14.95
2023-04-12T09:55:29.092Z,14.94
2023-04-12T09:57:57.313Z,14.93
2023-04-12T10:00:27.557Z,14.94
2023-04-12T10:02:58.509Z,14.95
2023-04-12T10:05:27.226Z,14.94
2023-04-12T10:07:56.171Z,14.95
2023-04-12T10:10:23.857Z,14.93
2023-04-12T10:12:51.408Z,14.93
2023-04-12T10:15:21.368Z,14.90
2023-04-12T10:17:54.606Z,14.94
2023-04-12T10:20:24.771Z,14.92
2023-04-12T10:22:54.259Z,14.94
2023-04-12T10:25:24.464Z,15.00
2023-04-12T10:27:51.676Z,14.99
2023-04-12T10:30:27.580Z,15.00
2023-04-12T10:33:04.075Z,15.02
2023-04-12T10:35:56.181Z,15.04
2023-04-12T10:38:28.605Z,15.07
2023-04-12T10:41:14.924Z,15.12
2023-04-12T10:43:46.754Z,15.17
2023-04-12T10:46:37.887Z,15.21
2023-04-12T10:49:15.835Z,15.19
2023-04-12T10:52:01.470Z,15.18
2023-04-12T10:54:32.976Z,15.23
2023-04-12T10:57:00.255Z,15.24
2023-04-12T10:59:57.413Z,15.26
2023-04-12T11:02:25.655Z,15.28
2023-04-12T11:05:06.824Z,15.30
2023-04-12T11:07:44.691Z,15.31
2023-04-12T11:10:22.116Z,15.36
2023-04-12T11:12:51.129Z,15.37
2023-04-12T11:15:18.944Z,15.37
2023-04-12T11:17:55.286Z,15.40
2023-04-12T11:20:24.815Z,15.39
2023-04-12T11:22:54.301Z,15.40
2023-04-12T11:25:21.614Z,15.39
2023-04-12T11:27:53.326Z,15.41
2023-04-12T11:30:21.192Z,15.45
2023-04-12T11:32:48.703Z,15.47
2023-04-12T11:35:23.127Z,15.47
2023-04-12T11:37:50.601Z,15.45
2023-04-12T11:40:17.845Z,15.45
2023-04-12T11:42:45.311Z,15.46
2023-04-12T11:45:18.130Z,15.48
2023-04-12T11:47:47.593Z,15.50
2023-04-12T11:50:29.132Z,15.52
2023-04-12T11:52:56.313Z,15.57
2023-04-12T11:55:24.031Z,15.59
2023-04-12T11:57:56.426Z,15.61
2023-04-12T12:00:24.878Z,15.64
2023-04-12T12:03:06.822Z,15.64
2023-04-12T12:05:37.737Z,15.68
2023-04-12T12:08:08.053Z,15.69
2023-04-12T12:10:46.935Z,15.71
2023-04-12T12:13:23.018Z,15.74
2023-04-12T12:15:52.945Z,15.76
2023-04-12T12:18:20.270Z,15.76
2023-04-12T12:20:51.273Z,15.79
2023-04-12T12:23:31.849Z,15.81
2023-04-12T12:26:14.181Z,15.80
2023-04-12T12:28:45.250Z,15.85
2023-04-12T12:31:12.990Z,15.85
2023-04-12T12:33:46.642Z,15.86
2023-04-12T12:36:18.953Z,15.88
2023-04-12T12:38:46.159Z,15.89
2023-04-12T12:41:24.073Z,15.90
2023-04-12T12:43:53.302Z,15.91
2023-04-12T12:46:20.996Z,15.92
2023-04-12T12:48:49.080Z,15.94
2023-04-12T12:51:22.790Z,15.95
2023-04-12T12:53:49.841Z,15.95
2023-04-12T12:56:17.125Z,15.95
2023-04-12T12:58:44.677Z,15.94
2023-04-12T13:01:11.980Z,15.95
2023-04-12T13:03:39.464Z,15.96
2023-04-12T13:06:07.149Z,15.96
2023-04-12T13:08:35.864Z,15.94
2023-04-12T13:11:03.733Z,15.96
2023-04-12T13:13:30.838Z,15.95
2023-04-12T13:16:00.950Z,15.95
2023-04-12T13:18:28.188Z,15.95
2023-04-12T13:20:55.738Z,15.96
2023-04-12T13:23:22.944Z,15.97
2023-04-12T13:25:50.161Z,16.02
2023-04-12T13:28:17.831Z,16.06
2023-04-12T13:30:45.132Z,16.08
2023-04-12T13:33:15.378Z,16.09
2023-04-12T13:35:46.368Z,16.11
2023-04-12T13:38:13.951Z,16.10
2023-04-12T13:40:41.447Z,16.10
2023-04-12T13:43:09.176Z,16.11
2023-04-12T13:45:46.728Z,16.09
2023-04-12T13:48:14.336Z,16.11
2023-04-12T13:50:43.680Z,16.06
2023-04-12T13:53:14.003Z,16.01
2023-04-12T13:55:41.883Z,15.99
2023-04-12T13:58:09.846Z,15.98
2023-04-12T14:00:37.596Z,16.00
2023-04-12T14:03:05.029Z,16.00
2023-04-12T14:05:32.430Z,16.01
2023-04-12T14:07:59.598Z,16.02
2023-04-12T14:10:29.632Z,15.99
2023-04-12T14:12:56.671Z,16.01
2023-04-12T14:15:24.028Z,16.02
2023-04-12T14:17:51.984Z,16.02
2023-04-12T14:20:19.971Z,16.02
2023-04-12T14:22:48.150Z,15.97
2023-04-12T14:25:16.150Z,15.97
2023-04-12T14:27:44.871Z,15.94
2023-04-12T14:30:12.917Z,15.93
2023-04-12T14:32:40.378Z,15.94
2023-04-12T14:35:10.063Z,15.91
2023-04-12T14:37:38.593Z,15.91
2023-04-12T14:40:09.470Z,15.91
2023-04-12T14:42:38.405Z,15.90
2023-04-12T14:45:10.182Z,15.88
2023-04-12T14:47:37.891Z,15.85
2023-04-12T14:50:05.308Z,15.85
2023-04-12T14:52:32.770Z,15.85
2023-04-12T14:54:59.945Z,15.85
2023-04-12T14:57:28.300Z,15.84
2023-04-12T14:59:57.495Z,15.85
2023-04-12T15:02:24.962Z,15.87
2023-04-12T15:04:52.557Z,15.85
2023-04-12T15:07:20.106Z,15.82
2023-04-12T15:09:47.142Z,15.81
2023-04-12T15:12:14.328Z,15.80
2023-04-12T15:14:42.121Z,15.79
2023-04-12T15:17:11.298Z,15.72
2023-04-12T15:19:38.440Z,15.73
2023-04-12T15:22:05.720Z,15.73
2023-04-12T15:24:34.279Z,15.73
2023-04-12T15:27:03.681Z,15.74
2023-04-12T15:29:32.276Z,15.73
2023-04-12T15:31:59.953Z,15.70
2023-04-12T15:34:29.060Z,15.72
2023-04-12T15:36:56.849Z,15.70
2023-04-12T15:39:24.224Z,15.69
2023-04-12T15:41:51.481Z,15.67
2023-04-12T15:44:19.726Z,15.67
2023-04-12T15:46:53.321Z,15.67
2023-04-12T15:49:30.522Z,15.68
2023-04-12T15:51:57.833Z,15.69
2023-04-12T15:54:25.590Z,15.67
2023-04-12T15:56:53.565Z,15.68
2023-04-12T15:59:20.803Z,15.68
2023-04-12T16:01:49.287Z,15.78
2023-04-12T16:04:21.734Z,15.82
2023-04-12T16:06:48.985Z,15.78
2023-04-12T16:09:18.086Z,15.78
2023-04-12T16:11:48.085Z,15.75
2023-04-12T16:14:15.924Z,15.74
2023-04-12T16:16:44.048Z,15.74
2023-04-12T16:19:11.511Z,15.76
2023-04-12T16:21:43.311Z,15.77
2023-04-12T16:24:12.417Z,15.82
2023-04-12T16:26:42.130Z,15.74
2023-04-12T16:29:11.262Z,15.68
2023-04-12T16:31:39.198Z,15.64
2023-04-12T16:34:06.546Z,15.63
2023-04-12T16:36:33.588Z,15.59
2023-04-12T16:39:04.060Z,15.56
2023-04-12T16:41:32.099Z,15.56
2023-04-12T16:44:02.227Z,15.53
2023-04-12T16:46:29.702Z,15.50
2023-04-12T16:48:59.624Z,15.50
2023-04-12T16:51:27.604Z,15.49
2023-04-12T16:54:04.895Z,15.48
2023-04-12T16:56:32.916Z,15.47
2023-04-12T16:59:00.825Z,15.45
2023-04-12T17:01:28.783Z,15.46
2023-04-12T17:03:57.468Z,15.42
2023-04-12T17:06:24.759Z,15.42
2023-04-12T17:08:54.177Z,15.39
2023-04-12T17:11:21.561Z,15.42
2023-04-12T17:13:50.801Z,15.48
2023-04-12T17:16:18.129Z,15.53
2023-04-12T17:18:45.127Z,15.55
2023-04-12T17:21:14.882Z,15.54
2023-04-12T17:23:42.090Z,15.51
2023-04-12T17:26:11.349Z,15.15
2023-04-12T17:28:40.025Z,15.09
2023-04-12T17:31:09.291Z,15.11
2023-04-12T17:33:38.023Z,15.18
2023-04-12T17:38:38.140Z,15.27
2023-04-12T17:41:05.505Z,15.27
2023-04-12T17:43:32.631Z,15.32
2023-04-12T17:46:03.928Z,15.35
2023-04-12T17:48:32.164Z,15.38
2023-04-12T17:51:00.684Z,15.39
2023-04-12T17:53:27.764Z,15.37
2023-04-12T17:55:55.048Z,15.37
2023-04-12T17:58:22.285Z,15.43
2023-04-12T18:00:49.446Z,15.49
2023-04-12T18:03:17.111Z,15.55
2023-04-12T18:05:46.580Z,15.58
2023-04-12T18:08:14.259Z,15.57
2023-04-12T18:10:41.580Z,15.33
2023-04-12T18:13:09.127Z,15.14
2023-04-12T18:15:36.612Z,15.26
2023-04-12T18:18:08.374Z,15.33
2023-04-12T18:20:35.886Z,15.37
2023-04-12T18:23:13.566Z,15.40
2023-04-12T18:25:41.236Z,15.43
2023-04-12T18:28:08.854Z,15.55
2023-04-12T18:30:36.252Z,15.54
2023-04-12T18:33:04.428Z,15.64
2023-04-12T18:35:32.071Z,15.64
2023-04-12T18:37:59.400Z,15.73
2023-04-12T18:40:27.922Z,15.82
2023-04-12T18:42:55.689Z,15.94
2023-04-12T18:45:24.218Z,16.02
2023-04-12T18:47:54.155Z,16.09
2023-04-12T18:50:23.079Z,16.16
2023-04-12T18:52:52.500Z,16.21
2023-04-12T18:55:21.096Z,16.30
2023-04-12T18:57:49.921Z,16.34
2023-04-12T19:00:18.298Z,16.37
2023-04-12T19:02:49.435Z,16.42
2023-04-12T19:05:16.842Z,16.42
2023-04-12T19:07:46.119Z,16.25
2023-04-12T19:10:15.120Z,16.25
2023-04-12T19:12:42.754Z,16.24
2023-04-12T19:15:11.132Z,16.28
2023-04-12T19:17:41.070Z,16.32
2023-04-12T19:20:10.084Z,16.35
2023-04-12T19:22:38.061Z,16.43
2023-04-12T19:25:06.204Z,16.57
2023-04-12T19:27:34.979Z,16.58
2023-04-12T19:30:04.644Z,16.64
2023-04-12T19:32:32.779Z,16.71
2023-04-12T19:35:02.814Z,16.78
2023-04-12T19:37:35.039Z,16.98
2023-04-12T19:40:03.970Z,17.06
2023-04-12T19:42:33.744Z,17.16
2023-04-12T19:45:03.488Z,17.24
2023-04-12T19:47:32.531Z,17.29
2023-04-12T19:50:01.918Z,17.33
2023-04-12T19:52:30.545Z,17.33
2023-04-12T19:55:01.778Z,17.32
2023-04-12T19:57:29.924Z,17.38
2023-04-12T19:59:57.368Z,17.39
2023-04-12T20:02:28.278Z,17.44
2023-04-12T20:04:57.826Z,17.46
2023-04-12T20:07:27.290Z,17.47
2023-04-12T20:09:56.098Z,17.51
2023-04-12T20:12:24.857Z,17.50
2023-04-12T20:14:52.881Z,17.54
2023-04-12T20:17:20.708Z,17.40
2023-04-12T20:19:58.775Z,17.34
2023-04-12T20:22:26.911Z,17.46
2023-04-12T20:24:54.854Z,17.52
2023-04-12T20:27:24.846Z,17.54
2023-04-12T20:29:55.714Z,17.53
2023-04-12T20:32:33.328Z,17.55
2023-04-12T20:35:26.606Z,17.58
2023-04-12T20:38:00.276Z,17.58
2023-04-12T20:40:31.437Z,17.59
2023-04-12T20:42:58.703Z,17.59
2023-04-12T20:45:26.455Z,17.50
2023-04-12T20:47:54.249Z,17.50
2023-04-12T20:50:25.162Z,17.55
2023-04-12T20:52:53.705Z,17.53
2023-04-12T20:55:24.257Z,17.53
2023-04-12T20:57:57.124Z,17.52
2023-04-12T21:00:25.849Z,17.50
2023-04-12T21:02:55.393Z,17.52
2023-04-12T21:05:23.351Z,17.51
2023-04-12T21:07:52.418Z,17.55
2023-04-12T21:10:20.041Z,17.60
2023-04-12T21:12:50.724Z,17.62
2023-04-12T21:15:22.412Z,17.64
2023-04-12T21:17:55.301Z,17.64
2023-04-12T21:20:25.904Z,17.63
2023-04-12T21:22:53.808Z,17.62
2023-04-12T21:25:23.552Z,17.63
2023-04-12T21:27:51.414Z,17.63
2023-04-12T21:30:19.780Z,17.60
2023-04-12T21:32:47.102Z,17.63
2023-04-12T21:35:16.947Z,17.63
2023-04-12T21:37:46.991Z,17.60
2023-04-12T21:40:15.329Z,17.60
2023-04-12T21:42:44.673Z,17.61
2023-04-12T21:45:16.017Z,17.59
2023-04-12T21:47:43.903Z,17.55
2023-04-12T21:50:12.681Z,17.43
2023-04-12T21:52:42.567Z,17.33
2023-04-12T21:55:11.279Z,17.25
2023-04-12T21:57:39.252Z,17.25
2023-04-12T22:00:09.344Z,17.24
2023-04-12T22:02:38.697Z,17.24
2023-04-12T22:05:07.286Z,17.22
2023-04-12T22:07:34.426Z,17.18
2023-04-12T22:10:03.122Z,17.16
2023-04-12T22:12:34.310Z,17.13
2023-04-12T22:15:05.968Z,17.10
2023-04-12T22:17:34.302Z,17.03
2023-04-12T22:20:01.676Z,16.76
2023-04-12T22:22:30.143Z,16.62
2023-04-12T22:25:00.210Z,16.53
2023-04-12T22:27:27.489Z,16.46
2023-04-12T22:29:54.914Z,16.42
2023-04-12T22:32:22.418Z,16.38
2023-04-12T22:34:58.057Z,16.46
2023-04-12T22:37:35.427Z,16.48
2023-04-12T22:40:02.875Z,16.48
2023-04-12T22:42:30.442Z,16.47
2023-04-12T22:44:58.525Z,16.43
2023-04-12T22:47:27.085Z,16.39
2023-04-12T22:50:02.142Z,16.37
2023-04-12T22:52:32.046Z,16.36
2023-04-12T22:54:59.313Z,16.33
2023-04-12T22:57:26.478Z,16.32
2023-04-12T22:59:54.269Z,16.28
2023-04-12T23:02:21.369Z,16.25
2023-04-12T23:04:51.235Z,16.23
2023-04-12T23:07:18.820Z,16.22
2023-04-12T23:09:46.145Z,16.19
2023-04-12T23:12:14.103Z,16.18
2023-04-12T23:14:41.237Z,16.17
2023-04-12T23:19:50.708Z,16.11
2023-04-12T23:22:48.605Z,16.09
2023-04-12T23:25:24.997Z,16.04
2023-04-12T23:27:52.000Z,16.04
2023-04-12T23:30:19.241Z,16.00
2023-04-12T23:32:46.970Z,15.99
2023-04-12T23:35:14.940Z,15.97
2023-04-12T23:37:43.512Z,15.96
2023-04-12T23:40:14.944Z,15.92
2023-04-12T23:42:43.807Z,15.90
2023-04-12T23:45:12.309Z,15.89
2023-04-12T23:47:39.303Z,15.85
2023-04-12T23:50:07.501Z,15.85
2023-04-12T23:52:34.591Z,15.83
2023-04-12T23:55:03.163Z,15.82
2023-04-12T23:57:30.349Z,15.80
2023-04-12T23:59:57.505Z,15.79
